sensor_id;sensor_type;location;lat;lon;timestamp;temperature;humidity
22771;DHT22;11552;50.786;4.332;2022-11-11T00:02:06;10.60;99.90
22771;DHT22;11552;50.786;4.332;2022-11-11T00:04:33;10.70;99.90
22771;DHT22;11552;50.786;4.332;2022-11-11T00:06:59;10.50;99.90
22771;DHT22;11552;50.786;4.332;2022-11-11T00:09:25;10.50;99.90
22771;DHT22;11552;50.786;4.332;2022-11-11T00:11:50;10.60;99.90
22771;DHT22;11552;50.786;4.332;2022-11-11T00:14:16;10.60;99.90
22771;DHT22;11552;50.786;4.332;2022-11-11T00:16:42;10.70;99.90
22771;DHT22;11552;50.786;4.332;2022-11-11T00:19:26;10.60;99.90
22771;DHT22;11552;50.786;4.332;2022-11-11T00:22:30;10.60;99.90
22771;DHT22;11552;50.786;4.332;2022-11-11T00:25:16;10.60;99.90
22771;DHT22;11552;50.786;4.332;2022-11-11T00:27:42;10.60;99.90
22771;DHT22;11552;50.786;4.332;2022-11-11T00:30:08;10.60;99.90
22771;DHT22;11552;50.786;4.332;2022-11-11T00:32:34;10.60;99.90
22771;DHT22;11552;50.786;4.332;2022-11-11T00:35:00;10.70;99.90
22771;DHT22;11552;50.786;4.332;2022-11-11T00:37:45;10.60;99.90
22771;DHT22;11552;50.786;4.332;2022-11-11T00:40:14;10.60;99.90
22771;DHT22;11552;50.786;4.332;2022-11-11T00:42:39;10.70;99.90
22771;DHT22;11552;50.786;4.332;2022-11-11T00:45:06;10.60;99.90
22771;DHT22;11552;50.786;4.332;2022-11-11T00:49:09;10.60;99.90
22771;DHT22;11552;50.786;4.332;2022-11-11T00:51:53;10.60;99.90
22771;DHT22;11552;50.786;4.332;2022-11-11T00:54:18;10.60;99.90
22771;DHT22;11552;50.786;4.332;2022-11-11T00:56:44;10.60;99.90
22771;DHT22;11552;50.786;4.332;2022-11-11T00:59:10;10.70;99.90
22771;DHT22;11552;50.786;4.332;2022-11-11T01:01:36;10.70;99.90
22771;DHT22;11552;50.786;4.332;2022-11-11T01:04:03;10.70;99.90
22771;DHT22;11552;50.786;4.332;2022-11-11T01:06:29;10.60;99.90
22771;DHT22;11552;50.786;4.332;2022-11-11T01:08:55;10.60;99.90
22771;DHT22;11552;50.786;4.332;2022-11-11T01:11:22;10.60;99.90
22771;DHT22;11552;50.786;4.332;2022-11-11T01:13:48;10.60;99.90
22771;DHT22;11552;50.786;4.332;2022-11-11T01:16:23;10.60;99.90
22771;DHT22;11552;50.786;4.332;2022-11-11T01:18:50;10.60;99.90
22771;DHT22;11552;50.786;4.332;2022-11-11T01:21:18;10.50;99.90
22771;DHT22;11552;50.786;4.332;2022-11-11T01:23:44;10.60;99.90
22771;DHT22;11552;50.786;4.332;2022-11-11T01:26:25;10.60;99.90
22771;DHT22;11552;50.786;4.332;2022-11-11T01:28:53;10.60;99.90
22771;DHT22;11552;50.786;4.332;2022-11-11T01:31:20;10.60;99.90
22771;DHT22;11552;50.786;4.332;2022-11-11T01:33:46;10.80;99.90
22771;DHT22;11552;50.786;4.332;2022-11-11T01:36:14;10.70;99.90
22771;DHT22;11552;50.786;4.332;2022-11-11T01:38:41;10.60;99.90
22771;DHT22;11552;50.786;4.332;2022-11-11T01:41:10;10.70;99.90
22771;DHT22;11552;50.786;4.332;2022-11-11T01:43:48;10.80;99.90
22771;DHT22;11552;50.786;4.332;2022-11-11T01:46:23;10.60;99.90
22771;DHT22;11552;50.786;4.332;2022-11-11T01:49:02;10.60;99.90
22771;DHT22;11552;50.786;4.332;2022-11-11T01:57:00;10.60;99.90
22771;DHT22;11552;50.786;4.332;2022-11-11T01:59:27;10.60;99.90
22771;DHT22;11552;50.786;4.332;2022-11-11T02:01:53;10.50;99.90
22771;DHT22;11552;50.786;4.332;2022-11-11T02:05:21;10.50;99.90
22771;DHT22;11552;50.786;4.332;2022-11-11T02:08:27;10.50;99.90
22771;DHT22;11552;50.786;4.332;2022-11-11T02:11:08;10.60;99.90
22771;DHT22;11552;50.786;4.332;2022-11-11T02:15:01;10.60;99.90
22771;DHT22;11552;50.786;4.332;2022-11-11T02:17:29;10.70;99.90
22771;DHT22;11552;50.786;4.332;2022-11-11T02:20:01;10.70;99.90
22771;DHT22;11552;50.786;4.332;2022-11-11T02:22:51;10.70;99.90
22771;DHT22;11552;50.786;4.332;2022-11-11T02:25:21;10.70;99.90
22771;DHT22;11552;50.786;4.332;2022-11-11T02:27:50;10.80;99.90
22771;DHT22;11552;50.786;4.332;2022-11-11T02:30:18;10.90;99.90
22771;DHT22;11552;50.786;4.332;2022-11-11T02:32:47;11.00;99.90
22771;DHT22;11552;50.786;4.332;2022-11-11T02:35:31;11.00;99.90
22771;DHT22;11552;50.786;4.332;2022-11-11T02:37:58;11.00;99.90
22771;DHT22;11552;50.786;4.332;2022-11-11T02:40:29;11.10;99.90
22771;DHT22;11552;50.786;4.332;2022-11-11T02:42:57;11.10;99.90
22771;DHT22;11552;50.786;4.332;2022-11-11T02:45:23;11.10;99.90
22771;DHT22;11552;50.786;4.332;2022-11-11T02:47:48;11.00;99.90
22771;DHT22;11552;50.786;4.332;2022-11-11T02:50:14;11.00;99.90
22771;DHT22;11552;50.786;4.332;2022-11-11T02:52:40;10.90;99.90
22771;DHT22;11552;50.786;4.332;2022-11-11T02:55:06;10.80;99.90
22771;DHT22;11552;50.786;4.332;2022-11-11T02:57:32;10.80;99.90
22771;DHT22;11552;50.786;4.332;2022-11-11T02:59:59;10.70;99.90
22771;DHT22;11552;50.786;4.332;2022-11-11T03:04:16;10.60;99.90
22771;DHT22;11552;50.786;4.332;2022-11-11T03:06:42;10.70;99.90
22771;DHT22;11552;50.786;4.332;2022-11-11T03:09:07;10.70;99.90
22771;DHT22;11552;50.786;4.332;2022-11-11T03:11:33;10.70;99.90
22771;DHT22;11552;50.786;4.332;2022-11-11T03:14:03;10.60;99.90
22771;DHT22;11552;50.786;4.332;2022-11-11T03:16:28;10.60;99.90
22771;DHT22;11552;50.786;4.332;2022-11-11T03:19:33;10.60;99.90
22771;DHT22;11552;50.786;4.332;2022-11-11T03:21:59;10.70;99.90
22771;DHT22;11552;50.786;4.332;2022-11-11T03:24:25;10.90;99.90
22771;DHT22;11552;50.786;4.332;2022-11-11T03:27:11;11.00;99.90
22771;DHT22;11552;50.786;4.332;2022-11-11T03:29:37;11.10;99.90
22771;DHT22;11552;50.786;4.332;2022-11-11T03:32:04;11.20;99.90
22771;DHT22;11552;50.786;4.332;2022-11-11T03:34:29;11.00;99.90
22771;DHT22;11552;50.786;4.332;2022-11-11T03:36:55;11.00;99.90
22771;DHT22;11552;50.786;4.332;2022-11-11T03:39:39;11.00;99.90
22771;DHT22;11552;50.786;4.332;2022-11-11T03:42:05;11.00;99.90
22771;DHT22;11552;50.786;4.332;2022-11-11T03:44:30;11.10;99.90
22771;DHT22;11552;50.786;4.332;2022-11-11T03:46:56;10.80;99.90
22771;DHT22;11552;50.786;4.332;2022-11-11T03:49:21;10.70;99.90
22771;DHT22;11552;50.786;4.332;2022-11-11T03:51:47;10.80;99.90
22771;DHT22;11552;50.786;4.332;2022-11-11T03:54:13;10.80;99.90
22771;DHT22;11552;50.786;4.332;2022-11-11T03:56:38;10.70;99.90
22771;DHT22;11552;50.786;4.332;2022-11-11T03:59:04;10.70;99.90
22771;DHT22;11552;50.786;4.332;2022-11-11T04:01:29;10.80;99.90
22771;DHT22;11552;50.786;4.332;2022-11-11T04:04:13;10.90;99.90
22771;DHT22;11552;50.786;4.332;2022-11-11T04:06:58;10.80;99.90
22771;DHT22;11552;50.786;4.332;2022-11-11T04:09:42;10.90;99.90
22771;DHT22;11552;50.786;4.332;2022-11-11T04:12:26;10.90;99.90
22771;DHT22;11552;50.786;4.332;2022-11-11T04:14:53;10.90;99.90
22771;DHT22;11552;50.786;4.332;2022-11-11T04:17:37;10.80;99.90
22771;DHT22;11552;50.786;4.332;2022-11-11T04:20:03;10.60;99.90
22771;DHT22;11552;50.786;4.332;2022-11-11T04:22:47;10.50;99.90
22771;DHT22;11552;50.786;4.332;2022-11-11T04:25:13;10.50;99.90
22771;DHT22;11552;50.786;4.332;2022-11-11T04:27:57;10.40;99.90
22771;DHT22;11552;50.786;4.332;2022-11-11T04:30:42;10.20;99.90
22771;DHT22;11552;50.786;4.332;2022-11-11T04:33:08;10.30;99.90
22771;DHT22;11552;50.786;4.332;2022-11-11T04:35:34;10.30;99.90
22771;DHT22;11552;50.786;4.332;2022-11-11T04:38:00;10.40;99.90
22771;DHT22;11552;50.786;4.332;2022-11-11T04:40:44;10.40;99.90
22771;DHT22;11552;50.786;4.332;2022-11-11T04:43:31;10.30;99.90
22771;DHT22;11552;50.786;4.332;2022-11-11T04:48:56;10.30;99.90
22771;DHT22;11552;50.786;4.332;2022-11-11T04:51:21;10.20;99.90
22771;DHT22;11552;50.786;4.332;2022-11-11T04:54:07;10.10;99.90
22771;DHT22;11552;50.786;4.332;2022-11-11T04:56:32;10.00;99.90
22771;DHT22;11552;50.786;4.332;2022-11-11T04:59:15;10.10;99.90
22771;DHT22;11552;50.786;4.332;2022-11-11T05:01:41;10.10;99.90
22771;DHT22;11552;50.786;4.332;2022-11-11T05:04:25;10.10;99.90
22771;DHT22;11552;50.786;4.332;2022-11-11T05:06:51;10.10;99.90
22771;DHT22;11552;50.786;4.332;2022-11-11T05:09:35;10.10;99.90
22771;DHT22;11552;50.786;4.332;2022-11-11T05:12:01;10.00;99.90
22771;DHT22;11552;50.786;4.332;2022-11-11T05:14:27;9.90;99.90
22771;DHT22;11552;50.786;4.332;2022-11-11T05:17:11;9.70;99.90
22771;DHT22;11552;50.786;4.332;2022-11-11T05:19:55;9.80;99.90
22771;DHT22;11552;50.786;4.332;2022-11-11T05:22:40;9.80;99.90
22771;DHT22;11552;50.786;4.332;2022-11-11T05:25:07;9.70;99.90
22771;DHT22;11552;50.786;4.332;2022-11-11T05:27:55;9.70;99.90
22771;DHT22;11552;50.786;4.332;2022-11-11T05:30:22;9.60;99.90
22771;DHT22;11552;50.786;4.332;2022-11-11T05:33:47;9.50;99.90
22771;DHT22;11552;50.786;4.332;2022-11-11T05:37:46;9.50;99.90
22771;DHT22;11552;50.786;4.332;2022-11-11T05:40:32;9.40;99.90
22771;DHT22;11552;50.786;4.332;2022-11-11T05:42:58;9.40;99.90
22771;DHT22;11552;50.786;4.332;2022-11-11T05:47:37;9.50;99.90
22771;DHT22;11552;50.786;4.332;2022-11-11T05:50:03;9.50;99.90
22771;DHT22;11552;50.786;4.332;2022-11-11T05:52:29;9.50;99.90
22771;DHT22;11552;50.786;4.332;2022-11-11T05:54:56;9.60;99.90
22771;DHT22;11552;50.786;4.332;2022-11-11T05:57:21;9.50;99.90
22771;DHT22;11552;50.786;4.332;2022-11-11T05:59:47;9.40;99.90
22771;DHT22;11552;50.786;4.332;2022-11-11T06:02:13;9.40;99.90
22771;DHT22;11552;50.786;4.332;2022-11-11T06:04:38;9.30;99.90
22771;DHT22;11552;50.786;4.332;2022-11-11T06:07:04;9.30;99.90
22771;DHT22;11552;50.786;4.332;2022-11-11T06:09:29;9.30;99.90
22771;DHT22;11552;50.786;4.332;2022-11-11T06:11:55;9.40;99.90
22771;DHT22;11552;50.786;4.332;2022-11-11T06:14:21;9.50;99.90
22771;DHT22;11552;50.786;4.332;2022-11-11T06:16:46;9.70;99.90
22771;DHT22;11552;50.786;4.332;2022-11-11T06:19:12;9.70;99.90
22771;DHT22;11552;50.786;4.332;2022-11-11T06:21:37;9.80;99.90
22771;DHT22;11552;50.786;4.332;2022-11-11T06:24:22;9.80;99.90
22771;DHT22;11552;50.786;4.332;2022-11-11T06:26:47;9.60;99.90
22771;DHT22;11552;50.786;4.332;2022-11-11T06:29:13;9.60;99.90
22771;DHT22;11552;50.786;4.332;2022-11-11T06:31:39;9.70;99.90
22771;DHT22;11552;50.786;4.332;2022-11-11T06:34:04;9.60;99.90
22771;DHT22;11552;50.786;4.332;2022-11-11T06:36:30;9.50;99.90
22771;DHT22;11552;50.786;4.332;2022-11-11T06:38:55;9.40;99.90
22771;DHT22;11552;50.786;4.332;2022-11-11T06:41:22;9.40;99.90
22771;DHT22;11552;50.786;4.332;2022-11-11T06:43:50;9.40;99.90
22771;DHT22;11552;50.786;4.332;2022-11-11T06:46:23;9.40;99.90
22771;DHT22;11552;50.786;4.332;2022-11-11T06:48:49;9.40;99.90
22771;DHT22;11552;50.786;4.332;2022-11-11T06:51:15;9.50;99.90
22771;DHT22;11552;50.786;4.332;2022-11-11T06:56:00;9.70;99.90
22771;DHT22;11552;50.786;4.332;2022-11-11T06:58:25;9.80;99.90
22771;DHT22;11552;50.786;4.332;2022-11-11T07:00:51;9.70;99.90
22771;DHT22;11552;50.786;4.332;2022-11-11T07:03:19;9.70;99.90
22771;DHT22;11552;50.786;4.332;2022-11-11T07:05:45;9.70;99.90
22771;DHT22;11552;50.786;4.332;2022-11-11T07:08:13;9.60;99.90
22771;DHT22;11552;50.786;4.332;2022-11-11T07:10:43;9.70;99.90
22771;DHT22;11552;50.786;4.332;2022-11-11T07:13:09;9.60;99.90
22771;DHT22;11552;50.786;4.332;2022-11-11T07:15:35;9.60;99.90
22771;DHT22;11552;50.786;4.332;2022-11-11T07:18:02;9.70;99.90
22771;DHT22;11552;50.786;4.332;2022-11-11T07:20:28;9.80;99.90
22771;DHT22;11552;50.786;4.332;2022-11-11T07:22:54;9.80;99.90
22771;DHT22;11552;50.786;4.332;2022-11-11T07:25:20;9.90;99.90
22771;DHT22;11552;50.786;4.332;2022-11-11T07:27:45;9.90;99.90
22771;DHT22;11552;50.786;4.332;2022-11-11T07:30:11;10.00;99.90
22771;DHT22;11552;50.786;4.332;2022-11-11T07:32:43;10.00;99.90
22771;DHT22;11552;50.786;4.332;2022-11-11T07:35:12;10.00;99.90
22771;DHT22;11552;50.786;4.332;2022-11-11T07:37:39;10.10;99.90
22771;DHT22;11552;50.786;4.332;2022-11-11T07:40:05;10.10;99.90
22771;DHT22;11552;50.786;4.332;2022-11-11T07:42:31;10.00;99.90
22771;DHT22;11552;50.786;4.332;2022-11-11T07:44:56;9.90;99.90
22771;DHT22;11552;50.786;4.332;2022-11-11T07:47:22;9.90;99.90
22771;DHT22;11552;50.786;4.332;2022-11-11T07:49:48;9.90;99.90
22771;DHT22;11552;50.786;4.332;2022-11-11T07:52:13;10.00;99.90
22771;DHT22;11552;50.786;4.332;2022-11-11T07:54:39;10.10;99.90
22771;DHT22;11552;50.786;4.332;2022-11-11T07:57:05;10.10;99.90
22771;DHT22;11552;50.786;4.332;2022-11-11T07:59:30;10.00;99.90
22771;DHT22;11552;50.786;4.332;2022-11-11T08:01:56;10.20;99.90
22771;DHT22;11552;50.786;4.332;2022-11-11T08:04:21;10.30;99.90
22771;DHT22;11552;50.786;4.332;2022-11-11T08:06:47;10.30;99.90
22771;DHT22;11552;50.786;4.332;2022-11-11T08:09:13;10.40;99.90
22771;DHT22;11552;50.786;4.332;2022-11-11T08:13:13;10.50;99.90
22771;DHT22;11552;50.786;4.332;2022-11-11T08:16:44;10.40;99.90
22771;DHT22;11552;50.786;4.332;2022-11-11T08:19:10;10.40;99.90
22771;DHT22;11552;50.786;4.332;2022-11-11T08:22:56;10.60;99.90
22771;DHT22;11552;50.786;4.332;2022-11-11T08:25:24;10.90;99.90
22771;DHT22;11552;50.786;4.332;2022-11-11T08:27:56;11.00;99.90
22771;DHT22;11552;50.786;4.332;2022-11-11T08:31:10;11.00;99.90
22771;DHT22;11552;50.786;4.332;2022-11-11T08:33:36;11.00;99.90
22771;DHT22;11552;50.786;4.332;2022-11-11T08:36:02;11.00;99.90
22771;DHT22;11552;50.786;4.332;2022-11-11T08:38:30;11.20;99.90
22771;DHT22;11552;50.786;4.332;2022-11-11T08:41:41;11.00;99.90
22771;DHT22;11552;50.786;4.332;2022-11-11T08:44:29;11.40;99.90
22771;DHT22;11552;50.786;4.332;2022-11-11T08:46:55;11.50;99.90
22771;DHT22;11552;50.786;4.332;2022-11-11T08:49:20;11.50;99.90
22771;DHT22;11552;50.786;4.332;2022-11-11T08:51:46;11.80;99.90
22771;DHT22;11552;50.786;4.332;2022-11-11T08:54:12;12.20;99.90
22771;DHT22;11552;50.786;4.332;2022-11-11T08:56:38;12.80;99.90
22771;DHT22;11552;50.786;4.332;2022-11-11T08:59:05;13.50;99.90
22771;DHT22;11552;50.786;4.332;2022-11-11T09:01:30;14.30;99.90
22771;DHT22;11552;50.786;4.332;2022-11-11T09:03:56;15.00;99.90
22771;DHT22;11552;50.786;4.332;2022-11-11T09:06:57;15.40;99.90
22771;DHT22;11552;50.786;4.332;2022-11-11T09:09:23;15.40;99.90
22771;DHT22;11552;50.786;4.332;2022-11-11T09:11:48;15.80;99.90
22771;DHT22;11552;50.786;4.332;2022-11-11T09:17:09;16.50;99.90
22771;DHT22;11552;50.786;4.332;2022-11-11T09:19:35;16.90;99.90
22771;DHT22;11552;50.786;4.332;2022-11-11T09:22:01;17.00;99.90
22771;DHT22;11552;50.786;4.332;2022-11-11T09:25:46;17.20;99.90
22771;DHT22;11552;50.786;4.332;2022-11-11T09:28:38;17.40;99.90
22771;DHT22;11552;50.786;4.332;2022-11-11T09:31:05;18.00;99.90
22771;DHT22;11552;50.786;4.332;2022-11-11T09:33:30;17.80;99.90
22771;DHT22;11552;50.786;4.332;2022-11-11T09:35:59;18.20;99.90
22771;DHT22;11552;50.786;4.332;2022-11-11T09:54:16;17.70;99.90
22771;DHT22;11552;50.786;4.332;2022-11-11T09:56:43;17.20;99.90
22771;DHT22;11552;50.786;4.332;2022-11-11T09:59:23;16.60;99.90
22771;DHT22;11552;50.786;4.332;2022-11-11T10:01:53;15.90;99.90
22771;DHT22;11552;50.786;4.332;2022-11-11T10:06:19;15.00;99.90
22771;DHT22;11552;50.786;4.332;2022-11-11T10:08:51;14.30;99.90
22771;DHT22;11552;50.786;4.332;2022-11-11T10:14:03;13.70;99.90
22771;DHT22;11552;50.786;4.332;2022-11-11T10:16:57;13.50;99.90
22771;DHT22;11552;50.786;4.332;2022-11-11T10:22:19;13.40;99.90
22771;DHT22;11552;50.786;4.332;2022-11-11T10:24:52;13.30;99.90
22771;DHT22;11552;50.786;4.332;2022-11-11T10:27:22;13.30;99.90
22771;DHT22;11552;50.786;4.332;2022-11-11T10:29:48;13.30;99.90
22771;DHT22;11552;50.786;4.332;2022-11-11T10:35:23;13.40;99.90
22771;DHT22;11552;50.786;4.332;2022-11-11T10:40:38;13.50;99.90
22771;DHT22;11552;50.786;4.332;2022-11-11T10:43:27;13.50;99.90
22771;DHT22;11552;50.786;4.332;2022-11-11T10:47:44;13.50;99.90
22771;DHT22;11552;50.786;4.332;2022-11-11T10:52:45;13.70;99.90
22771;DHT22;11552;50.786;4.332;2022-11-11T10:55:33;13.50;99.90
22771;DHT22;11552;50.786;4.332;2022-11-11T11:01:00;13.40;99.90
22771;DHT22;11552;50.786;4.332;2022-11-11T11:03:36;13.30;99.90
22771;DHT22;11552;50.786;4.332;2022-11-11T11:08:50;13.60;99.90
22771;DHT22;11552;50.786;4.332;2022-11-11T11:11:36;13.70;99.90
22771;DHT22;11552;50.786;4.332;2022-11-11T11:14:10;13.80;99.90
22771;DHT22;11552;50.786;4.332;2022-11-11T11:16:42;13.80;99.90
22771;DHT22;11552;50.786;4.332;2022-11-11T11:19:25;13.90;99.90
22771;DHT22;11552;50.786;4.332;2022-11-11T11:24:24;13.90;99.90
22771;DHT22;11552;50.786;4.332;2022-11-11T11:27:27;13.90;99.90
22771;DHT22;11552;50.786;4.332;2022-11-11T11:29:53;13.90;99.90
22771;DHT22;11552;50.786;4.332;2022-11-11T11:32:33;14.00;99.90
22771;DHT22;11552;50.786;4.332;2022-11-11T11:34:59;14.00;99.90
22771;DHT22;11552;50.786;4.332;2022-11-11T11:37:26;14.10;99.90
22771;DHT22;11552;50.786;4.332;2022-11-11T11:40:02;14.10;99.90
22771;DHT22;11552;50.786;4.332;2022-11-11T11:58:32;14.40;99.90
22771;DHT22;11552;50.786;4.332;2022-11-11T12:01:10;14.70;99.90
22771;DHT22;11552;50.786;4.332;2022-11-11T12:07:03;14.80;99.90
22771;DHT22;11552;50.786;4.332;2022-11-11T12:20:23;15.30;99.90
22771;DHT22;11552;50.786;4.332;2022-11-11T12:25:47;15.30;99.90
22771;DHT22;11552;50.786;4.332;2022-11-11T12:32:06;15.30;99.90
22771;DHT22;11552;50.786;4.332;2022-11-11T12:37:24;15.40;99.90
22771;DHT22;11552;50.786;4.332;2022-11-11T12:49:31;15.70;99.90
22771;DHT22;11552;50.786;4.332;2022-11-11T12:57:20;15.70;99.90
22771;DHT22;11552;50.786;4.332;2022-11-11T13:00:29;15.70;99.90
22771;DHT22;11552;50.786;4.332;2022-11-11T13:06:25;15.80;99.90
22771;DHT22;11552;50.786;4.332;2022-11-11T13:17:17;15.90;99.90
22771;DHT22;11552;50.786;4.332;2022-11-11T13:22:39;16.00;99.90
22771;DHT22;11552;50.786;4.332;2022-11-11T13:25:06;15.90;99.90
22771;DHT22;11552;50.786;4.332;2022-11-11T13:27:48;15.90;99.90
22771;DHT22;11552;50.786;4.332;2022-11-11T13:30:31;15.80;99.90
22771;DHT22;11552;50.786;4.332;2022-11-11T13:33:04;15.80;99.90
22771;DHT22;11552;50.786;4.332;2022-11-11T13:36:52;15.80;99.90
22771;DHT22;11552;50.786;4.332;2022-11-11T13:39:37;15.90;99.90
22771;DHT22;11552;50.786;4.332;2022-11-11T13:42:05;15.90;99.90
22771;DHT22;11552;50.786;4.332;2022-11-11T13:44:58;15.80;99.90
22771;DHT22;11552;50.786;4.332;2022-11-11T13:47:43;15.70;99.90
22771;DHT22;11552;50.786;4.332;2022-11-11T13:50:28;15.70;99.90
22771;DHT22;11552;50.786;4.332;2022-11-11T13:53:12;15.60;99.90
22771;DHT22;11552;50.786;4.332;2022-11-11T13:55:43;15.60;99.90
22771;DHT22;11552;50.786;4.332;2022-11-11T13:58:46;15.50;99.90
22771;DHT22;11552;50.786;4.332;2022-11-11T14:01:10;15.60;99.90
22771;DHT22;11552;50.786;4.332;2022-11-11T14:03:57;15.50;99.90
22771;DHT22;11552;50.786;4.332;2022-11-11T14:08:53;15.60;99.90
22771;DHT22;11552;50.786;4.332;2022-11-11T14:13:52;15.60;99.90
22771;DHT22;11552;50.786;4.332;2022-11-11T14:21:55;15.60;99.90
22771;DHT22;11552;50.786;4.332;2022-11-11T14:24:37;15.50;99.90
22771;DHT22;11552;50.786;4.332;2022-11-11T14:27:27;15.60;99.90
22771;DHT22;11552;50.786;4.332;2022-11-11T14:29:55;15.70;99.90
22771;DHT22;11552;50.786;4.332;2022-11-11T14:40:31;15.50;99.90
22771;DHT22;11552;50.786;4.332;2022-11-11T14:42:59;15.40;99.90
22771;DHT22;11552;50.786;4.332;2022-11-11T14:47:54;15.10;99.90
22771;DHT22;11552;50.786;4.332;2022-11-11T14:52:53;15.20;99.90
22771;DHT22;11552;50.786;4.332;2022-11-11T14:55:34;15.20;99.90
22771;DHT22;11552;50.786;4.332;2022-11-11T14:58:20;15.10;99.90
22771;DHT22;11552;50.786;4.332;2022-11-11T15:01:00;15.10;99.90
22771;DHT22;11552;50.786;4.332;2022-11-11T15:03:30;15.10;99.90
22771;DHT22;11552;50.786;4.332;2022-11-11T15:06:19;15.10;99.90
22771;DHT22;11552;50.786;4.332;2022-11-11T15:09:32;15.10;99.90
22771;DHT22;11552;50.786;4.332;2022-11-11T15:11:58;15.00;99.90
22771;DHT22;11552;50.786;4.332;2022-11-11T15:17:23;14.90;99.90
22771;DHT22;11552;50.786;4.332;2022-11-11T15:22:41;14.60;99.90
22771;DHT22;11552;50.786;4.332;2022-11-11T15:30:22;14.30;99.90
22771;DHT22;11552;50.786;4.332;2022-11-11T15:33:01;14.30;99.90
22771;DHT22;11552;50.786;4.332;2022-11-11T15:35:44;14.30;99.90
22771;DHT22;11552;50.786;4.332;2022-11-11T15:38:13;14.20;99.90
22771;DHT22;11552;50.786;4.332;2022-11-11T15:43:22;14.10;99.90
22771;DHT22;11552;50.786;4.332;2022-11-11T15:45:57;14.00;99.90
22771;DHT22;11552;50.786;4.332;2022-11-11T15:48:27;13.90;99.90
22771;DHT22;11552;50.786;4.332;2022-11-11T15:50:54;13.80;99.90
22771;DHT22;11552;50.786;4.332;2022-11-11T15:53:25;13.70;99.90
22771;DHT22;11552;50.786;4.332;2022-11-11T15:56:29;13.70;99.90
22771;DHT22;11552;50.786;4.332;2022-11-11T16:00:40;13.60;99.90
22771;DHT22;11552;50.786;4.332;2022-11-11T16:03:16;13.40;99.90
22771;DHT22;11552;50.786;4.332;2022-11-11T16:05:42;13.30;99.90
22771;DHT22;11552;50.786;4.332;2022-11-11T16:08:16;13.20;99.90
22771;DHT22;11552;50.786;4.332;2022-11-11T16:10:45;13.20;99.90
22771;DHT22;11552;50.786;4.332;2022-11-11T16:13:17;13.10;99.90
22771;DHT22;11552;50.786;4.332;2022-11-11T16:21:13;13.10;99.90
22771;DHT22;11552;50.786;4.332;2022-11-11T16:23:41;12.90;99.90
22771;DHT22;11552;50.786;4.332;2022-11-11T16:26:07;12.80;99.90
22771;DHT22;11552;50.786;4.332;2022-11-11T16:28:43;12.70;99.90
22771;DHT22;11552;50.786;4.332;2022-11-11T16:34:00;12.70;99.90
22771;DHT22;11552;50.786;4.332;2022-11-11T16:37:18;12.50;99.90
22771;DHT22;11552;50.786;4.332;2022-11-11T16:40:59;12.50;99.90
22771;DHT22;11552;50.786;4.332;2022-11-11T16:43:30;12.30;99.90
22771;DHT22;11552;50.786;4.332;2022-11-11T16:46:01;12.30;99.90
22771;DHT22;11552;50.786;4.332;2022-11-11T16:51:06;12.20;99.90
22771;DHT22;11552;50.786;4.332;2022-11-11T16:53:35;12.10;99.90
22771;DHT22;11552;50.786;4.332;2022-11-11T17:00:18;12.00;99.90
22771;DHT22;11552;50.786;4.332;2022-11-11T17:02:44;11.80;99.90
22771;DHT22;11552;50.786;4.332;2022-11-11T17:05:10;11.70;99.90
22771;DHT22;11552;50.786;4.332;2022-11-11T17:07:38;11.70;99.90
22771;DHT22;11552;50.786;4.332;2022-11-11T17:12:06;11.50;99.90
22771;DHT22;11552;50.786;4.332;2022-11-11T17:14:35;11.40;99.90
22771;DHT22;11552;50.786;4.332;2022-11-11T17:17:02;11.50;99.90
22771;DHT22;11552;50.786;4.332;2022-11-11T17:21:21;11.40;99.90
22771;DHT22;11552;50.786;4.332;2022-11-11T17:23:47;11.40;99.90
22771;DHT22;11552;50.786;4.332;2022-11-11T17:28:33;11.30;99.90
22771;DHT22;11552;50.786;4.332;2022-11-11T17:31:07;11.40;99.90
22771;DHT22;11552;50.786;4.332;2022-11-11T17:33:33;11.50;99.90
22771;DHT22;11552;50.786;4.332;2022-11-11T17:35:59;11.40;99.90
22771;DHT22;11552;50.786;4.332;2022-11-11T17:38:26;11.20;99.90
22771;DHT22;11552;50.786;4.332;2022-11-11T17:40:52;11.20;99.90
22771;DHT22;11552;50.786;4.332;2022-11-11T17:43:19;11.20;99.90
22771;DHT22;11552;50.786;4.332;2022-11-11T17:45:44;11.30;99.90
22771;DHT22;11552;50.786;4.332;2022-11-11T17:48:10;11.20;99.90
22771;DHT22;11552;50.786;4.332;2022-11-11T17:52:43;11.20;99.90
22771;DHT22;11552;50.786;4.332;2022-11-11T17:55:09;11.10;99.90
22771;DHT22;11552;50.786;4.332;2022-11-11T17:57:35;11.10;99.90
22771;DHT22;11552;50.786;4.332;2022-11-11T18:00:00;10.90;99.90
22771;DHT22;11552;50.786;4.332;2022-11-11T18:02:26;10.90;99.90
22771;DHT22;11552;50.786;4.332;2022-11-11T18:05:40;11.00;99.90
22771;DHT22;11552;50.786;4.332;2022-11-11T18:10:14;10.90;99.90
22771;DHT22;11552;50.786;4.332;2022-11-11T18:12:40;10.90;99.90
22771;DHT22;11552;50.786;4.332;2022-11-11T18:15:07;10.90;99.90
22771;DHT22;11552;50.786;4.332;2022-11-11T18:17:33;11.00;99.90
22771;DHT22;11552;50.786;4.332;2022-11-11T18:19:58;11.00;99.90
22771;DHT22;11552;50.786;4.332;2022-11-11T18:23:03;10.80;99.90
22771;DHT22;11552;50.786;4.332;2022-11-11T18:25:28;10.70;99.90
22771;DHT22;11552;50.786;4.332;2022-11-11T18:27:54;10.70;99.90
22771;DHT22;11552;50.786;4.332;2022-11-11T18:30:19;10.60;99.90
22771;DHT22;11552;50.786;4.332;2022-11-11T18:32:46;10.70;99.90
22771;DHT22;11552;50.786;4.332;2022-11-11T18:35:12;10.60;99.90
22771;DHT22;11552;50.786;4.332;2022-11-11T18:37:37;10.70;99.90
22771;DHT22;11552;50.786;4.332;2022-11-11T18:40:04;10.60;99.90
22771;DHT22;11552;50.786;4.332;2022-11-11T18:42:30;10.50;99.90
22771;DHT22;11552;50.786;4.332;2022-11-11T18:44:56;10.40;99.90
22771;DHT22;11552;50.786;4.332;2022-11-11T18:47:21;10.50;99.90
22771;DHT22;11552;50.786;4.332;2022-11-11T18:49:47;10.50;99.90
22771;DHT22;11552;50.786;4.332;2022-11-11T18:52:28;10.50;99.90
22771;DHT22;11552;50.786;4.332;2022-11-11T18:54:54;10.50;99.90
22771;DHT22;11552;50.786;4.332;2022-11-11T18:57:19;10.50;99.90
22771;DHT22;11552;50.786;4.332;2022-11-11T18:59:45;10.50;99.90
22771;DHT22;11552;50.786;4.332;2022-11-11T19:02:11;10.30;99.90
22771;DHT22;11552;50.786;4.332;2022-11-11T19:04:36;10.20;99.90
22771;DHT22;11552;50.786;4.332;2022-11-11T19:07:02;10.10;99.90
22771;DHT22;11552;50.786;4.332;2022-11-11T19:09:28;10.20;99.90
22771;DHT22;11552;50.786;4.332;2022-11-11T19:11:54;10.10;99.90
22771;DHT22;11552;50.786;4.332;2022-11-11T19:14:20;10.10;99.90
22771;DHT22;11552;50.786;4.332;2022-11-11T19:18:00;10.10;99.90
22771;DHT22;11552;50.786;4.332;2022-11-11T19:20:26;10.00;99.90
22771;DHT22;11552;50.786;4.332;2022-11-11T19:22:52;9.80;99.90
22771;DHT22;11552;50.786;4.332;2022-11-11T19:25:17;10.00;99.90
22771;DHT22;11552;50.786;4.332;2022-11-11T19:27:43;10.10;99.90